Excel, Alabama
Current Conditions -  °F | °C
As of 10:53 PM on Sunday 21 Dec 2014 (Local Time) from KGZH Reporting Station
Haze Haze  
Wind Chill: 55°   Ceiling: 400
Heat Index: 55°   Visibility: 3mi
Dew Point: 53°   Wind: 7mph
Humidity: 93%   Direction: 90°E
Pressure: 30.01"   Gusts: NA
Location:  31.43°N, 87.34°W
Report Text: KGZH 220453Z AUTO 09006KT 3SM BR OVC004 13/12 A3001 RMK AO2 SLP161 T01280117
Loading
Personal Weather Stations






























Interactive Weather Map New forecast layout! Learn more

10-Day Weather Forecast

Advertisements
Track Severe Weather on mobile